Time;durP1;ratioP1;P1;durP2;ratioP2;P2;SDS_P1;SDS_P2;PMS_P1;PMS_P2;Temp;Humidity;BMP_temperature;BMP_pressure;BME280_temperature;BME280_humidity;BME280_pressure;Samples;Min_cycle;Max_cycle;Signal;HPM_P1;HPM_P2
2023/02/04 00:04:24;;;;;;;4.20;3.80;;;;;;;0.83;100.00;98521.52;449181;1249;142992;-64
2023/02/04 00:14:30;;;;;;;9.40;6.50;;;;;;;0.30;100.00;98544.63;447689;1249;144253;-63
2023/02/04 00:24:37;;;;;;;10.90;8.50;;;;;;;-0.16;100.00;98575.09;450191;1250;142518;-63
2023/02/04 00:34:41;;;;;;;;;;;;;;;-0.50;100.00;98608.45;444596;1250;142557;-64
2023/02/04 00:44:47;;;;;;;13.70;10.80;;;;;;;-0.91;100.00;98630.93;451198;1249;183312;-64
2023/02/04 00:54:53;;;;;;;15.20;10.60;;;;;;;-1.28;100.00;98681.90;450193;1250;143910;-64
2023/02/04 01:04:57;;;;;;;;;;;;;;;-1.54;100.00;98723.31;450966;1250;142713;-62
2023/02/04 01:15:03;;;;;;;12.00;10.50;;;;;;;-1.77;100.00;98755.53;448719;1251;129575;-63
2023/02/04 01:25:10;;;;;;;11.10;9.40;;;;;;;-1.95;100.00;98792.89;449973;1250;143684;-62
2023/02/04 01:35:16;;;;;;;9.90;8.60;;;;;;;-2.16;100.00;98843.31;450759;1251;142529;-62
2023/02/04 01:45:22;;;;;;;9.40;7.70;;;;;;;-2.35;100.00;98890.41;450829;1251;143595;-62
2023/02/04 01:55:31;;;;;;;8.50;7.10;;;;;;;-2.54;100.00;98929.89;434921;1253;142404;-62
2023/02/04 02:05:41;;;;;;;5.60;4.40;;;;;;;-2.59;100.00;98988.43;436522;1252;142599;-64
2023/02/04 02:15:48;;;;;;;7.30;6.00;;;;;;;-2.71;100.00;99039.89;435253;1250;141843;-64
2023/02/04 02:25:53;;;;;;;8.50;6.00;;;;;;;-2.81;100.00;99077.42;439855;1250;143037;-62
2023/02/04 02:35:59;;;;;;;6.90;5.90;;;;;;;-2.88;100.00;99141.45;437443;1253;143599;-63
2023/02/04 02:46:06;;;;;;;7.50;6.80;;;;;;;-2.95;100.00;99179.41;433665;1253;146059;-62
2023/02/04 02:56:12;;;;;;;9.60;8.20;;;;;;;-3.00;100.00;99246.27;438752;1253;141603;-62
2023/02/04 03:06:24;;;;;;;11.30;8.40;;;;;;;-2.99;100.00;99298.50;447782;1250;142398;-63
2023/02/04 03:16:32;;;;;;;11.80;9.30;;;;;;;-2.97;100.00;99361.00;441226;1251;213630;-62
2023/02/04 03:26:38;;;;;;;10.80;8.70;;;;;;;-3.00;100.00;99388.95;440589;1251;142643;-62
2023/02/04 03:36:42;;;;;;;;;;;;;;;-3.05;100.00;99441.93;436417;1250;143498;-63
2023/02/04 03:46:48;;;;;;;10.00;8.60;;;;;;;-3.07;100.00;99500.18;435610;1253;173588;-63
2023/02/04 03:56:54;;;;;;;10.40;8.70;;;;;;;-3.10;100.00;99535.83;434371;1254;197653;-62
2023/02/04 04:06:59;;;;;;;;;;;;;;;-3.13;100.00;99585.69;434749;1251;144226;-63
2023/02/04 04:17:05;;;;;;;9.50;7.30;;;;;;;-3.10;100.00;99635.33;443506;1250;129171;-64
2023/02/04 04:27:11;;;;;;;9.90;7.50;;;;;;;-3.04;100.00;99683.95;438249;1253;146951;-63
2023/02/04 04:37:16;;;;;;;;;;;;;;;-3.04;100.00;99711.68;439602;1250;144543;-63
2023/02/04 04:47:22;;;;;;;8.40;7.20;;;;;;;-3.10;100.00;99755.39;438244;1250;129438;-63
2023/02/04 04:57:26;;;;;;;;;;;;;;;-3.16;100.00;99803.55;436652;1253;147549;-64
2023/02/04 05:07:32;;;;;;;10.70;8.60;;;;;;;-3.21;100.00;99845.52;438859;1251;128176;-62
2023/02/04 05:17:38;;;;;;;12.00;8.30;;;;;;;-3.25;100.00;99892.28;435781;1253;142840;-64
2023/02/04 05:27:43;;;;;;;;;;;;;;;-3.25;100.00;99934.58;442303;1251;142847;-63
2023/02/04 05:37:48;;;;;;;10.90;8.30;;;;;;;-3.26;100.00;99972.27;440442;1251;131860;-64
2023/02/04 05:47:53;;;;;;;;;;;;;;;-3.25;100.00;100020.70;437040;1251;143274;-62
2023/02/04 05:57:59;;;;;;;10.70;8.80;;;;;;;-3.23;100.00;100063.52;434335;1251;134062;-63
2023/02/04 06:08:06;;;;;;;13.40;12.00;;;;;;;-3.22;100.00;100094.52;444763;1251;147560;-64
2023/02/04 06:18:12;;;;;;;14.00;9.60;;;;;;;-3.20;100.00;100133.05;434758;1253;142416;-62
2023/02/04 06:28:18;;;;;;;10.90;8.80;;;;;;;-3.26;100.00;100161.64;434738;1251;143974;-62
2023/02/04 06:38:24;;;;;;;11.50;8.80;;;;;;;-3.36;100.00;100190.55;437879;1249;142588;-63
2023/02/04 06:48:30;;;;;;;10.30;7.80;;;;;;;-3.39;100.00;100215.37;435145;1251;144090;-63
2023/02/04 06:58:36;;;;;;;9.60;7.20;;;;;;;-3.58;100.00;100245.76;434433;1253;142764;-64
2023/02/04 07:08:42;;;;;;;8.20;6.70;;;;;;;-3.67;100.00;100264.55;435580;1251;142850;-64
2023/02/04 07:18:48;;;;;;;7.10;5.30;;;;;;;-3.30;100.00;100274.61;434041;1251;142761;-63
2023/02/04 07:28:54;;;;;;;8.90;7.10;;;;;;;-0.48;100.00;100298.08;439712;1250;144399;-63
2023/02/04 07:38:59;;;;;;;5.80;5.20;;;;;;;1.79;99.38;100307.46;435506;1251;143136;-63
2023/02/04 07:49:05;;;;;;;8.20;5.70;;;;;;;3.73;97.62;100333.04;439812;1250;141884;-63
2023/02/04 07:59:11;;;;;;;7.00;4.60;;;;;;;4.55;92.89;100349.39;437175;1250;144384;-63
2023/02/04 08:09:17;;;;;;;5.20;4.70;;;;;;;4.10;89.99;100369.60;442130;1249;143564;-62
2023/02/04 08:19:23;;;;;;;5.10;4.50;;;;;;;4.65;86.81;100381.88;437470;1250;141947;-63
2023/02/04 08:29:29;;;;;;;6.50;4.40;;;;;;;4.36;85.03;100403.79;436583;1249;141085;-63
2023/02/04 08:39:35;;;;;;;5.50;4.50;;;;;;;5.51;82.29;100428.06;435867;1250;141480;-63
2023/02/04 08:49:41;;;;;;;6.00;3.50;;;;;;;7.87;80.63;100453.66;435754;1253;141260;-63
2023/02/04 08:59:46;;;;;;;4.60;3.50;;;;;;;9.97;76.65;100459.45;438621;1250;140979;-64
2023/02/04 09:09:52;;;;;;;2.90;2.60;;;;;;;10.80;72.56;100494.33;434793;1249;159518;-64
2023/02/04 09:19:58;;;;;;;3.80;3.30;;;;;;;12.72;72.13;100519.23;437858;1251;141721;-63
2023/02/04 09:30:05;;;;;;;4.40;2.40;;;;;;;11.02;68.19;100544.05;434819;1253;199852;-64
2023/02/04 09:40:16;;;;;;;3.50;2.60;;;;;;;7.44;68.59;100565.38;434831;1253;143132;-64
2023/02/04 09:50:26;;;;;;;4.70;2.80;;;;;;;5.67;69.87;100584.67;439311;1250;200042;-64
2023/02/04 10:00:32;;;;;;;3.80;2.70;;;;;;;4.92;70.50;100590.91;450519;1250;142277;-65
2023/02/04 10:10:39;;;;;;;4.30;3.30;;;;;;;3.26;70.32;100613.17;449464;1249;141410;-63
2023/02/04 10:20:45;;;;;;;4.70;3.10;;;;;;;1.59;72.23;100640.19;435485;1252;142402;-65
2023/02/04 10:30:51;;;;;;;5.70;4.30;;;;;;;0.84;73.82;100640.50;433906;1251;198021;-64
2023/02/04 10:41:04;;;;;;;5.00;3.20;;;;;;;0.21;74.15;100651.88;434478;1253;142902;-64
2023/02/04 10:51:14;;;;;;;6.50;4.40;;;;;;;0.05;75.30;100658.14;451364;1248;142572;-64
2023/02/04 11:01:20;;;;;;;5.60;4.30;;;;;;;0.56;76.11;100661.19;450517;1249;141704;-64
2023/02/04 11:11:27;;;;;;;5.70;3.90;;;;;;;0.13;76.03;100677.89;450877;1250;142187;-64
2023/02/04 11:21:45;;;;;;;7.70;3.20;;;;;;;-0.35;77.57;100680.61;446352;1250;162558;-65
2023/02/04 11:32:01;;;;;;;7.50;3.70;;;;;;;-0.48;77.94;100669.45;451063;1249;143482;-65
2023/02/04 11:42:20;;;;;;;5.40;3.60;;;;;;;-0.61;78.10;100660.69;443039;1249;143304;-64
2023/02/04 11:52:25;;;;;;;6.00;3.30;;;;;;;-0.71;79.23;100671.70;450217;1250;200230;-64
2023/02/04 12:02:44;;;;;;;6.70;2.90;;;;;;;-0.44;80.03;100666.35;449525;1249;143442;-64
2023/02/04 12:12:56;;;;;;;4.40;3.50;;;;;;;-0.27;80.93;100670.98;450303;1250;143269;-63
2023/02/04 12:23:03;;;;;;;3.50;3.10;;;;;;;-0.07;81.07;100667.99;448965;1250;144604;-64
2023/02/04 12:33:08;;;;;;;8.10;3.40;;;;;;;0.05;81.07;100672.42;444999;1249;145862;-65
2023/02/04 12:43:14;;;;;;;5.30;2.70;;;;;;;-0.14;80.99;100687.98;450346;1250;142412;-65
2023/02/04 12:53:20;;;;;;;4.90;3.30;;;;;;;-0.32;81.09;100697.63;450955;1249;142377;-65
2023/02/04 13:03:26;;;;;;;3.60;2.60;;;;;;;-0.40;82.31;100710.73;451181;1249;143524;-64
2023/02/04 13:13:31;;;;;;;;;;;;;;;-0.59;82.32;100715.20;450668;1249;207955;-65
2023/02/04 13:23:37;;;;;;;6.60;3.80;;;;;;;-0.87;83.09;100726.19;451390;1248;129628;-65
2023/02/04 13:33:42;;;;;;;5.40;3.60;;;;;;;-0.72;83.86;100733.08;450582;1249;145138;-64
2023/02/04 13:43:48;;;;;;;6.90;3.50;;;;;;;-0.44;83.25;100742.73;451241;1249;142568;-65
2023/02/04 13:53:54;;;;;;;4.00;3.00;;;;;;;-0.83;83.22;100756.80;451135;1249;142407;-64
2023/02/04 14:04:00;;;;;;;4.90;2.90;;;;;;;-1.19;84.11;100762.39;446666;1250;204128;-64
2023/02/04 14:14:06;;;;;;;4.40;2.90;;;;;;;-1.48;85.21;100768.29;451358;1249;142537;-64
2023/02/04 14:24:12;;;;;;;5.80;3.20;;;;;;;-1.58;85.78;100775.45;444789;1250;142405;-65
2023/02/04 14:34:17;;;;;;;6.20;3.50;;;;;;;-1.73;86.70;100778.29;445100;1249;142212;-66
2023/02/04 14:44:23;;;;;;;7.60;4.20;;;;;;;-1.91;87.49;100775.27;451073;1250;142498;-65
2023/02/04 14:54:29;;;;;;;5.40;3.70;;;;;;;-1.97;88.37;100774.73;450318;1250;143065;-65
2023/02/04 15:04:35;;;;;;;8.70;5.40;;;;;;;-2.14;89.62;100773.91;451153;1250;142099;-66
2023/02/04 15:14:40;;;;;;;9.50;5.60;;;;;;;-2.21;90.34;100779.17;451169;1249;143098;-65
2023/02/04 15:24:47;;;;;;;10.00;5.30;;;;;;;-2.26;90.62;100782.40;447958;1250;143358;-65
2023/02/04 15:34:51;;;;;;;;;;;;;;;-2.28;91.12;100796.61;434756;1253;142926;-64
2023/02/04 15:44:57;;;;;;;7.20;4.00;;;;;;;-2.42;91.71;100804.55;451353;1249;129215;-65
2023/02/04 15:55:03;;;;;;;4.70;2.60;;;;;;;-2.62;92.21;100820.33;450396;1250;141735;-65
2023/02/04 16:05:07;;;;;;;;;;;;;;;-2.82;92.66;100844.44;451189;1250;142199;-65
2023/02/04 16:15:13;;;;;;;4.50;2.90;;;;;;;-3.29;93.20;100853.30;451411;1250;129201;-65
2023/02/04 16:25:20;;;;;;;5.60;4.50;;;;;;;-3.36;93.93;100864.17;450420;1250;143047;-65
2023/02/04 16:35:26;;;;;;;9.00;4.30;;;;;;;-3.41;94.10;100879.86;451135;1249;142749;-65
2023/02/04 16:45:32;;;;;;;8.40;5.60;;;;;;;-3.47;94.33;100897.92;450424;1250;161070;-65
2023/02/04 16:55:38;;;;;;;7.90;5.00;;;;;;;-3.39;94.76;100908.82;451170;1250;142762;-64
2023/02/04 17:05:43;;;;;;;;;;;;;;;-3.24;94.63;100913.48;449933;1250;142348;-64
2023/02/04 17:15:49;;;;;;;7.20;4.00;;;;;;;-3.15;94.61;100927.83;449497;1249;129939;-65
2023/02/04 17:25:55;;;;;;;6.70;5.10;;;;;;;-3.27;94.38;100931.08;449796;1253;142626;-65
2023/02/04 17:36:01;;;;;;;7.60;4.40;;;;;;;-3.36;94.44;100947.91;448658;1250;142704;-65
2023/02/04 17:46:05;;;;;;;;;;;;;;;-3.30;94.92;100955.53;450310;1249;146880;-65
2023/02/04 17:56:14;;;;;;;7.00;5.10;;;;;;;-3.35;94.52;100959.56;451292;1250;129021;-66
2023/02/04 18:06:27;;;;;;;8.90;5.20;;;;;;;-3.39;94.70;100962.08;451187;1249;197645;-64
2023/02/04 18:16:35;;;;;;;5.00;4.40;;;;;;;-3.36;94.60;100978.89;438641;1249;143645;-65
2023/02/04 18:26:45;;;;;;;6.40;4.70;;;;;;;-3.37;94.61;100990.70;436159;1251;141417;-65
2023/02/04 18:36:52;;;;;;;5.40;3.60;;;;;;;-3.47;94.21;100995.52;449675;1250;142204;-67
2023/02/04 18:46:59;;;;;;;10.10;5.40;;;;;;;-3.54;94.13;101002.24;447875;1251;142683;-65
2023/02/04 18:57:27;;;;;;;11.90;7.50;;;;;;;-3.57;93.95;101003.75;450695;1250;144071;-67
2023/02/04 19:07:35;;;;;;;13.70;8.60;;;;;;;-3.63;94.08;101012.20;450130;1250;208979;-67
2023/02/04 19:17:41;;;;;;;11.80;5.90;;;;;;;-3.64;94.06;101023.13;450547;1250;144202;-66
2023/02/04 19:27:50;;;;;;;10.00;6.20;;;;;;;-3.67;93.87;101023.94;449430;1250;144139;-67
2023/02/04 19:37:59;;;;;;;8.90;4.60;;;;;;;-3.69;94.10;101035.71;450525;1251;142317;-66
2023/02/04 19:48:20;;;;;;;8.60;5.40;;;;;;;-3.72;94.10;101037.88;450646;1250;142431;-67
2023/02/04 19:58:30;;;;;;;9.70;5.70;;;;;;;-3.77;94.04;101047.71;444353;1251;143717;-66
2023/02/04 20:08:50;;;;;;;10.90;6.00;;;;;;;-3.80;94.24;101064.28;450395;1250;143063;-67
2023/02/04 20:18:58;;;;;;;10.30;6.10;;;;;;;-3.85;94.47;101066.76;449817;1250;142224;-68
2023/02/04 20:29:17;;;;;;;8.70;6.00;;;;;;;-3.84;94.78;101076.68;449217;1253;146243;-67
2023/02/04 20:39:40;;;;;;;10.00;5.40;;;;;;;-3.84;94.74;101085.40;448683;1250;142363;-66
2023/02/04 20:49:53;;;;;;;10.00;6.50;;;;;;;-3.91;94.80;101083.58;450225;1253;208053;-67
2023/02/04 20:59:59;;;;;;;10.60;8.10;;;;;;;-4.01;94.80;101085.09;450435;1251;147289;-67
2023/02/04 21:10:06;;;;;;;17.60;8.20;;;;;;;-4.08;94.96;101097.77;449697;1253;142844;-68
2023/02/04 21:20:13;;;;;;;13.00;8.70;;;;;;;-4.03;95.33;101106.26;448556;1253;143188;-68
2023/02/04 21:30:22;;;;;;;13.40;8.00;;;;;;;-3.95;95.58;101113.95;447755;1250;143014;-67
2023/02/04 21:40:28;;;;;;;18.70;9.50;;;;;;;-3.94;95.63;101112.60;447633;1251;209115;-68
2023/02/04 21:50:37;;;;;;;12.20;8.20;;;;;;;-3.94;95.77;101127.48;447309;1251;141996;-67
2023/02/04 22:00:43;;;;;;;9.40;6.90;;;;;;;-4.00;95.62;101147.55;445862;1251;143216;-67
2023/02/04 22:10:48;;;;;;;8.60;6.80;;;;;;;-4.02;95.45;101152.81;450667;1251;142014;-69
2023/02/04 22:20:53;;;;;;;;;;;;;;;-4.02;95.36;101170.61;448987;1251;145076;-68
2023/02/04 22:30:58;;;;;;;10.20;7.20;;;;;;;-4.04;95.22;101181.50;436341;1251;128676;-67
2023/02/04 22:41:05;;;;;;;15.20;8.80;;;;;;;-4.06;95.23;101197.36;450523;1251;143211;-68
2023/02/04 22:51:12;;;;;;;10.30;6.70;;;;;;;-4.05;95.05;101215.02;444001;1251;142923;-68
2023/02/04 23:01:18;;;;;;;11.30;7.10;;;;;;;-4.06;94.89;101224.23;437554;1254;141806;-70
2023/02/04 23:11:24;;;;;;;9.60;7.40;;;;;;;-4.16;94.77;101236.66;433960;1254;142227;-67
2023/02/04 23:21:30;;;;;;;10.50;7.20;;;;;;;-4.31;94.95;101235.29;448246;1251;142805;-67
2023/02/04 23:31:36;;;;;;;9.80;6.70;;;;;;;-4.40;94.91;101244.99;450601;1251;143037;-67
2023/02/04 23:41:42;;;;;;;9.50;6.90;;;;;;;-4.51;95.02;101256.87;450599;1251;142426;-67
2023/02/04 23:51:48;;;;;;;8.40;6.50;;;;;;;-4.59;94.96;101258.21;449925;1251;193797;-66
